sensor_id;sensor_type;location;lat;lon;timestamp;temperature;humidity
57410;DHT22;46044;44.738;20.394;2022-07-12T00:01:56;13.00;78.00
57410;DHT22;46044;44.738;20.394;2022-07-12T00:04:22;13.00;77.00
57410;DHT22;46044;44.738;20.394;2022-07-12T00:06:47;13.00;78.00
57410;DHT22;46044;44.738;20.394;2022-07-12T00:09:13;13.00;78.00
57410;DHT22;46044;44.738;20.394;2022-07-12T00:11:39;13.00;78.00
57410;DHT22;46044;44.738;20.394;2022-07-12T00:14:05;13.00;78.00
57410;DHT22;46044;44.738;20.394;2022-07-12T00:16:31;13.00;78.00
57410;DHT22;46044;44.738;20.394;2022-07-12T00:18:57;13.00;78.00
57410;DHT22;46044;44.738;20.394;2022-07-12T00:21:23;12.00;77.00
57410;DHT22;46044;44.738;20.394;2022-07-12T00:23:50;13.00;78.00
57410;DHT22;46044;44.738;20.394;2022-07-12T00:26:16;13.00;78.00
57410;DHT22;46044;44.738;20.394;2022-07-12T00:28:41;12.00;77.00
57410;DHT22;46044;44.738;20.394;2022-07-12T00:31:07;13.00;78.00
57410;DHT22;46044;44.738;20.394;2022-07-12T00:33:33;12.00;78.00
57410;DHT22;46044;44.738;20.394;2022-07-12T00:35:58;13.00;79.00
57410;DHT22;46044;44.738;20.394;2022-07-12T00:38:24;12.00;78.00
57410;DHT22;46044;44.738;20.394;2022-07-12T00:40:50;12.00;78.00
57410;DHT22;46044;44.738;20.394;2022-07-12T00:43:17;12.00;78.00
57410;DHT22;46044;44.738;20.394;2022-07-12T00:45:42;12.00;78.00
57410;DHT22;46044;44.738;20.394;2022-07-12T00:48:09;12.00;79.00
57410;DHT22;46044;44.738;20.394;2022-07-12T00:50:34;12.00;78.00
57410;DHT22;46044;44.738;20.394;2022-07-12T00:53:01;12.00;79.00
57410;DHT22;46044;44.738;20.394;2022-07-12T00:55:29;12.00;79.00
57410;DHT22;46044;44.738;20.394;2022-07-12T00:57:54;12.00;79.00
57410;DHT22;46044;44.738;20.394;2022-07-12T01:00:30;12.00;79.00
57410;DHT22;46044;44.738;20.394;2022-07-12T01:02:57;12.00;79.00
57410;DHT22;46044;44.738;20.394;2022-07-12T01:05:23;12.00;79.00
57410;DHT22;46044;44.738;20.394;2022-07-12T01:07:50;12.00;79.00
57410;DHT22;46044;44.738;20.394;2022-07-12T01:10:16;12.00;79.00
57410;DHT22;46044;44.738;20.394;2022-07-12T01:12:42;12.00;79.00
57410;DHT22;46044;44.738;20.394;2022-07-12T01:15:09;12.00;79.00
57410;DHT22;46044;44.738;20.394;2022-07-12T01:17:36;12.00;80.00
57410;DHT22;46044;44.738;20.394;2022-07-12T01:20:04;12.00;80.00
57410;DHT22;46044;44.738;20.394;2022-07-12T01:22:34;12.00;80.00
57410;DHT22;46044;44.738;20.394;2022-07-12T01:25:01;12.00;80.00
57410;DHT22;46044;44.738;20.394;2022-07-12T01:27:28;12.00;80.00
57410;DHT22;46044;44.738;20.394;2022-07-12T01:29:54;12.00;80.00
57410;DHT22;46044;44.738;20.394;2022-07-12T01:32:20;12.00;79.00
57410;DHT22;46044;44.738;20.394;2022-07-12T01:35:05;12.00;80.00
57410;DHT22;46044;44.738;20.394;2022-07-12T01:37:38;12.00;80.00
57410;DHT22;46044;44.738;20.394;2022-07-12T01:40:07;12.00;80.00
57410;DHT22;46044;44.738;20.394;2022-07-12T01:42:33;12.00;80.00
57410;DHT22;46044;44.738;20.394;2022-07-12T01:44:59;12.00;80.00
57410;DHT22;46044;44.738;20.394;2022-07-12T01:47:28;12.00;80.00
57410;DHT22;46044;44.738;20.394;2022-07-12T01:49:54;12.00;79.00
57410;DHT22;46044;44.738;20.394;2022-07-12T01:52:20;12.00;79.00
57410;DHT22;46044;44.738;20.394;2022-07-12T01:54:46;12.00;79.00
57410;DHT22;46044;44.738;20.394;2022-07-12T01:57:12;12.00;80.00
57410;DHT22;46044;44.738;20.394;2022-07-12T01:59:38;12.00;79.00
57410;DHT22;46044;44.738;20.394;2022-07-12T02:02:04;12.00;79.00
57410;DHT22;46044;44.738;20.394;2022-07-12T02:04:30;12.00;80.00
57410;DHT22;46044;44.738;20.394;2022-07-12T02:06:56;12.00;80.00
57410;DHT22;46044;44.738;20.394;2022-07-12T02:09:22;12.00;80.00
57410;DHT22;46044;44.738;20.394;2022-07-12T02:11:49;12.00;79.00
57410;DHT22;46044;44.738;20.394;2022-07-12T02:14:16;12.00;80.00
57410;DHT22;46044;44.738;20.394;2022-07-12T02:16:42;12.00;80.00
57410;DHT22;46044;44.738;20.394;2022-07-12T02:19:09;12.00;80.00
57410;DHT22;46044;44.738;20.394;2022-07-12T02:21:35;12.00;80.00
57410;DHT22;46044;44.738;20.394;2022-07-12T02:24:02;12.00;80.00
57410;DHT22;46044;44.738;20.394;2022-07-12T02:26:28;12.00;80.00
57410;DHT22;46044;44.738;20.394;2022-07-12T02:28:54;12.00;79.00
57410;DHT22;46044;44.738;20.394;2022-07-12T02:31:20;12.00;79.00
57410;DHT22;46044;44.738;20.394;2022-07-12T02:33:45;12.00;79.00
57410;DHT22;46044;44.738;20.394;2022-07-12T02:36:11;12.00;80.00
57410;DHT22;46044;44.738;20.394;2022-07-12T02:38:37;12.00;80.00
57410;DHT22;46044;44.738;20.394;2022-07-12T02:41:03;12.00;80.00
57410;DHT22;46044;44.738;20.394;2022-07-12T02:43:30;12.00;80.00
57410;DHT22;46044;44.738;20.394;2022-07-12T02:46:09;12.00;80.00
57410;DHT22;46044;44.738;20.394;2022-07-12T02:48:35;12.00;80.00
57410;DHT22;46044;44.738;20.394;2022-07-12T02:51:02;12.00;80.00
57410;DHT22;46044;44.738;20.394;2022-07-12T02:53:28;12.00;80.00
57410;DHT22;46044;44.738;20.394;2022-07-12T02:55:54;12.00;80.00
57410;DHT22;46044;44.738;20.394;2022-07-12T02:58:20;12.00;80.00
57410;DHT22;46044;44.738;20.394;2022-07-12T03:00:45;12.00;80.00
57410;DHT22;46044;44.738;20.394;2022-07-12T03:03:12;12.00;81.00
57410;DHT22;46044;44.738;20.394;2022-07-12T03:05:38;12.00;81.00
57410;DHT22;46044;44.738;20.394;2022-07-12T03:08:04;12.00;81.00
57410;DHT22;46044;44.738;20.394;2022-07-12T03:10:30;12.00;82.00
57410;DHT22;46044;44.738;20.394;2022-07-12T03:12:57;12.00;81.00
57410;DHT22;46044;44.738;20.394;2022-07-12T03:15:23;12.00;81.00
57410;DHT22;46044;44.738;20.394;2022-07-12T03:17:48;12.00;81.00
57410;DHT22;46044;44.738;20.394;2022-07-12T03:20:14;12.00;81.00
57410;DHT22;46044;44.738;20.394;2022-07-12T03:22:43;12.00;81.00
57410;DHT22;46044;44.738;20.394;2022-07-12T03:25:12;12.00;81.00
57410;DHT22;46044;44.738;20.394;2022-07-12T03:27:38;12.00;80.00
57410;DHT22;46044;44.738;20.394;2022-07-12T03:30:06;12.00;80.00
57410;DHT22;46044;44.738;20.394;2022-07-12T03:32:32;12.00;81.00
57410;DHT22;46044;44.738;20.394;2022-07-12T03:34:58;12.00;81.00
57410;DHT22;46044;44.738;20.394;2022-07-12T03:37:23;12.00;81.00
57410;DHT22;46044;44.738;20.394;2022-07-12T03:39:49;12.00;81.00
57410;DHT22;46044;44.738;20.394;2022-07-12T03:42:15;12.00;81.00
57410;DHT22;46044;44.738;20.394;2022-07-12T03:44:41;12.00;81.00
57410;DHT22;46044;44.738;20.394;2022-07-12T03:47:06;13.00;81.00
57410;DHT22;46044;44.738;20.394;2022-07-12T03:49:32;13.00;81.00
57410;DHT22;46044;44.738;20.394;2022-07-12T03:51:58;13.00;80.00
57410;DHT22;46044;44.738;20.394;2022-07-12T03:54:24;13.00;80.00
57410;DHT22;46044;44.738;20.394;2022-07-12T03:56:49;14.00;79.00
57410;DHT22;46044;44.738;20.394;2022-07-12T03:59:33;14.00;78.00
57410;DHT22;46044;44.738;20.394;2022-07-12T04:01:59;14.00;78.00
57410;DHT22;46044;44.738;20.394;2022-07-12T04:04:27;14.00;77.00
57410;DHT22;46044;44.738;20.394;2022-07-12T04:06:53;15.00;77.00
57410;DHT22;46044;44.738;20.394;2022-07-12T04:09:19;15.00;75.00
57410;DHT22;46044;44.738;20.394;2022-07-12T04:11:45;15.00;75.00
57410;DHT22;46044;44.738;20.394;2022-07-12T04:14:12;16.00;75.00
57410;DHT22;46044;44.738;20.394;2022-07-12T04:16:38;16.00;74.00
57410;DHT22;46044;44.738;20.394;2022-07-12T04:19:04;17.00;73.00
57410;DHT22;46044;44.738;20.394;2022-07-12T04:21:35;17.00;72.00
57410;DHT22;46044;44.738;20.394;2022-07-12T04:24:00;17.00;71.00
57410;DHT22;46044;44.738;20.394;2022-07-12T04:26:26;17.00;69.00
57410;DHT22;46044;44.738;20.394;2022-07-12T04:28:52;18.00;70.00
57410;DHT22;46044;44.738;20.394;2022-07-12T04:31:17;18.00;68.00
57410;DHT22;46044;44.738;20.394;2022-07-12T04:33:43;18.00;68.00
57410;DHT22;46044;44.738;20.394;2022-07-12T04:36:09;18.00;67.00
57410;DHT22;46044;44.738;20.394;2022-07-12T04:38:34;19.00;66.00
57410;DHT22;46044;44.738;20.394;2022-07-12T04:41:00;19.00;65.00
57410;DHT22;46044;44.738;20.394;2022-07-12T04:43:26;19.00;64.00
57410;DHT22;46044;44.738;20.394;2022-07-12T04:45:52;19.00;64.00
57410;DHT22;46044;44.738;20.394;2022-07-12T04:48:18;19.00;64.00
57410;DHT22;46044;44.738;20.394;2022-07-12T04:50:43;19.00;63.00
57410;DHT22;46044;44.738;20.394;2022-07-12T04:53:10;20.00;61.00
57410;DHT22;46044;44.738;20.394;2022-07-12T04:55:36;20.00;60.00
57410;DHT22;46044;44.738;20.394;2022-07-12T04:58:02;20.00;59.00
57410;DHT22;46044;44.738;20.394;2022-07-12T05:00:28;20.00;59.00
57410;DHT22;46044;44.738;20.394;2022-07-12T05:02:53;20.00;58.00
57410;DHT22;46044;44.738;20.394;2022-07-12T05:05:19;20.00;58.00
57410;DHT22;46044;44.738;20.394;2022-07-12T05:07:45;20.00;59.00
57410;DHT22;46044;44.738;20.394;2022-07-12T05:10:11;20.00;59.00
57410;DHT22;46044;44.738;20.394;2022-07-12T05:12:37;20.00;57.00
57410;DHT22;46044;44.738;20.394;2022-07-12T05:15:04;21.00;56.00
57410;DHT22;46044;44.738;20.394;2022-07-12T05:17:30;20.00;56.00
57410;DHT22;46044;44.738;20.394;2022-07-12T05:19:56;20.00;57.00
57410;DHT22;46044;44.738;20.394;2022-07-12T05:22:22;20.00;57.00
57410;DHT22;46044;44.738;20.394;2022-07-12T05:24:48;21.00;58.00
57410;DHT22;46044;44.738;20.394;2022-07-12T05:27:14;21.00;57.00
57410;DHT22;46044;44.738;20.394;2022-07-12T05:29:39;21.00;57.00
57410;DHT22;46044;44.738;20.394;2022-07-12T05:32:05;21.00;56.00
57410;DHT22;46044;44.738;20.394;2022-07-12T05:34:31;21.00;55.00
57410;DHT22;46044;44.738;20.394;2022-07-12T05:36:57;21.00;54.00
57410;DHT22;46044;44.738;20.394;2022-07-12T05:39:23;21.00;55.00
57410;DHT22;46044;44.738;20.394;2022-07-12T05:41:48;21.00;55.00
57410;DHT22;46044;44.738;20.394;2022-07-12T05:44:14;21.00;55.00
57410;DHT22;46044;44.738;20.394;2022-07-12T05:46:43;22.00;57.00
57410;DHT22;46044;44.738;20.394;2022-07-12T05:49:08;22.00;55.00
57410;DHT22;46044;44.738;20.394;2022-07-12T05:51:34;24.00;52.00
57410;DHT22;46044;44.738;20.394;2022-07-12T05:54:18;24.00;50.00
57410;DHT22;46044;44.738;20.394;2022-07-12T05:56:44;24.00;48.00
57410;DHT22;46044;44.738;20.394;2022-07-12T05:59:10;24.00;49.00
57410;DHT22;46044;44.738;20.394;2022-07-12T06:01:35;23.00;50.00
57410;DHT22;46044;44.738;20.394;2022-07-12T06:04:01;23.00;52.00
57410;DHT22;46044;44.738;20.394;2022-07-12T06:06:27;24.00;50.00
57410;DHT22;46044;44.738;20.394;2022-07-12T06:08:53;24.00;49.00
57410;DHT22;46044;44.738;20.394;2022-07-12T06:11:18;25.00;47.00
57410;DHT22;46044;44.738;20.394;2022-07-12T06:13:44;25.00;46.00
57410;DHT22;46044;44.738;20.394;2022-07-12T06:16:10;25.00;45.00
57410;DHT22;46044;44.738;20.394;2022-07-12T06:18:37;25.00;46.00
57410;DHT22;46044;44.738;20.394;2022-07-12T06:21:03;24.00;47.00
57410;DHT22;46044;44.738;20.394;2022-07-12T06:23:29;24.00;47.00
57410;DHT22;46044;44.738;20.394;2022-07-12T06:25:55;24.00;48.00
57410;DHT22;46044;44.738;20.394;2022-07-12T06:28:21;24.00;49.00
57410;DHT22;46044;44.738;20.394;2022-07-12T06:30:46;24.00;49.00
57410;DHT22;46044;44.738;20.394;2022-07-12T06:33:12;24.00;49.00
57410;DHT22;46044;44.738;20.394;2022-07-12T06:35:38;24.00;49.00
57410;DHT22;46044;44.738;20.394;2022-07-12T06:38:03;24.00;49.00
57410;DHT22;46044;44.738;20.394;2022-07-12T06:40:29;24.00;50.00
57410;DHT22;46044;44.738;20.394;2022-07-12T06:42:55;24.00;49.00
57410;DHT22;46044;44.738;20.394;2022-07-12T06:45:21;24.00;49.00
57410;DHT22;46044;44.738;20.394;2022-07-12T06:47:46;24.00;49.00
57410;DHT22;46044;44.738;20.394;2022-07-12T06:50:12;24.00;49.00
57410;DHT22;46044;44.738;20.394;2022-07-12T06:52:38;24.00;48.00
57410;DHT22;46044;44.738;20.394;2022-07-12T06:55:04;24.00;48.00
57410;DHT22;46044;44.738;20.394;2022-07-12T06:57:30;24.00;48.00
57410;DHT22;46044;44.738;20.394;2022-07-12T06:59:56;25.00;47.00
57410;DHT22;46044;44.738;20.394;2022-07-12T07:02:22;27.00;42.00
57410;DHT22;46044;44.738;20.394;2022-07-12T07:04:48;28.00;42.00
57410;DHT22;46044;44.738;20.394;2022-07-12T07:07:14;28.00;42.00
57410;DHT22;46044;44.738;20.394;2022-07-12T07:09:39;27.00;41.00
57410;DHT22;46044;44.738;20.394;2022-07-12T07:12:05;27.00;41.00
57410;DHT22;46044;44.738;20.394;2022-07-12T07:14:31;26.00;42.00
57410;DHT22;46044;44.738;20.394;2022-07-12T07:16:56;26.00;44.00
57410;DHT22;46044;44.738;20.394;2022-07-12T07:19:22;26.00;44.00
57410;DHT22;46044;44.738;20.394;2022-07-12T07:21:50;26.00;45.00
57410;DHT22;46044;44.738;20.394;2022-07-12T07:24:16;25.00;45.00
57410;DHT22;46044;44.738;20.394;2022-07-12T07:26:41;25.00;45.00
57410;DHT22;46044;44.738;20.394;2022-07-12T07:29:07;26.00;46.00
57410;DHT22;46044;44.738;20.394;2022-07-12T07:31:51;27.00;43.00
57410;DHT22;46044;44.738;20.394;2022-07-12T07:34:17;27.00;43.00
57410;DHT22;46044;44.738;20.394;2022-07-12T07:36:43;27.00;42.00
57410;DHT22;46044;44.738;20.394;2022-07-12T07:39:09;29.00;41.00
57410;DHT22;46044;44.738;20.394;2022-07-12T07:41:35;30.00;37.00
57410;DHT22;46044;44.738;20.394;2022-07-12T07:44:05;29.00;38.00
57410;DHT22;46044;44.738;20.394;2022-07-12T07:46:30;28.00;38.00
57410;DHT22;46044;44.738;20.394;2022-07-12T07:48:56;28.00;39.00
57410;DHT22;46044;44.738;20.394;2022-07-12T07:51:22;28.00;40.00
57410;DHT22;46044;44.738;20.394;2022-07-12T07:53:47;27.00;39.00
57410;DHT22;46044;44.738;20.394;2022-07-12T07:56:13;27.00;40.00
57410;DHT22;46044;44.738;20.394;2022-07-12T07:58:39;27.00;41.00
57410;DHT22;46044;44.738;20.394;2022-07-12T08:01:04;27.00;41.00
57410;DHT22;46044;44.738;20.394;2022-07-12T08:03:30;27.00;41.00
57410;DHT22;46044;44.738;20.394;2022-07-12T08:05:56;27.00;41.00
57410;DHT22;46044;44.738;20.394;2022-07-12T08:08:23;26.00;41.00
57410;DHT22;46044;44.738;20.394;2022-07-12T08:10:52;27.00;41.00
57410;DHT22;46044;44.738;20.394;2022-07-12T08:13:17;27.00;41.00
57410;DHT22;46044;44.738;20.394;2022-07-12T08:15:43;27.00;40.00
57410;DHT22;46044;44.738;20.394;2022-07-12T08:18:09;27.00;41.00
57410;DHT22;46044;44.738;20.394;2022-07-12T08:20:34;27.00;40.00
57410;DHT22;46044;44.738;20.394;2022-07-12T08:23:00;27.00;40.00
57410;DHT22;46044;44.738;20.394;2022-07-12T08:25:26;27.00;40.00
57410;DHT22;46044;44.738;20.394;2022-07-12T08:27:51;26.00;41.00
57410;DHT22;46044;44.738;20.394;2022-07-12T08:30:17;27.00;41.00
57410;DHT22;46044;44.738;20.394;2022-07-12T08:32:44;27.00;41.00
57410;DHT22;46044;44.738;20.394;2022-07-12T08:35:10;27.00;40.00
57410;DHT22;46044;44.738;20.394;2022-07-12T08:37:36;27.00;39.00
57410;DHT22;46044;44.738;20.394;2022-07-12T08:40:02;27.00;39.00
57410;DHT22;46044;44.738;20.394;2022-07-12T08:42:28;27.00;39.00
57410;DHT22;46044;44.738;20.394;2022-07-12T08:44:55;27.00;39.00
57410;DHT22;46044;44.738;20.394;2022-07-12T08:47:20;27.00;39.00
57410;DHT22;46044;44.738;20.394;2022-07-12T08:50:15;27.00;38.00
57410;DHT22;46044;44.738;20.394;2022-07-12T08:52:52;27.00;38.00
57410;DHT22;46044;44.738;20.394;2022-07-12T08:55:28;27.00;36.00
57410;DHT22;46044;44.738;20.394;2022-07-12T08:57:56;28.00;37.00
57410;DHT22;46044;44.738;20.394;2022-07-12T09:00:23;28.00;35.00
57410;DHT22;46044;44.738;20.394;2022-07-12T09:02:54;28.00;36.00
57410;DHT22;46044;44.738;20.394;2022-07-12T09:05:22;28.00;38.00
57410;DHT22;46044;44.738;20.394;2022-07-12T09:07:48;28.00;37.00
57410;DHT22;46044;44.738;20.394;2022-07-12T09:10:14;28.00;36.00
57410;DHT22;46044;44.738;20.394;2022-07-12T09:12:41;27.00;33.00
57410;DHT22;46044;44.738;20.394;2022-07-12T09:15:11;27.00;35.00
57410;DHT22;46044;44.738;20.394;2022-07-12T09:17:37;26.00;35.00
57410;DHT22;46044;44.738;20.394;2022-07-12T09:20:04;26.00;36.00
57410;DHT22;46044;44.738;20.394;2022-07-12T09:22:30;27.00;36.00
57410;DHT22;46044;44.738;20.394;2022-07-12T09:24:55;27.00;36.00
57410;DHT22;46044;44.738;20.394;2022-07-12T09:27:25;28.00;36.00
57410;DHT22;46044;44.738;20.394;2022-07-12T09:29:51;27.00;34.00
57410;DHT22;46044;44.738;20.394;2022-07-12T09:32:17;28.00;36.00
57410;DHT22;46044;44.738;20.394;2022-07-12T09:35:03;28.00;36.00
57410;DHT22;46044;44.738;20.394;2022-07-12T09:37:48;27.00;34.00
57410;DHT22;46044;44.738;20.394;2022-07-12T09:40:14;27.00;33.00
57410;DHT22;46044;44.738;20.394;2022-07-12T09:42:40;27.00;33.00
57410;DHT22;46044;44.738;20.394;2022-07-12T09:45:08;27.00;35.00
57410;DHT22;46044;44.738;20.394;2022-07-12T09:47:35;27.00;34.00
57410;DHT22;46044;44.738;20.394;2022-07-12T09:50:01;28.00;34.00
57410;DHT22;46044;44.738;20.394;2022-07-12T09:52:28;28.00;33.00
57410;DHT22;46044;44.738;20.394;2022-07-12T09:54:55;28.00;31.00
57410;DHT22;46044;44.738;20.394;2022-07-12T09:57:30;28.00;33.00
57410;DHT22;46044;44.738;20.394;2022-07-12T09:59:57;28.00;32.00
57410;DHT22;46044;44.738;20.394;2022-07-12T10:02:23;27.00;31.00
57410;DHT22;46044;44.738;20.394;2022-07-12T10:04:50;27.00;33.00
57410;DHT22;46044;44.738;20.394;2022-07-12T10:07:16;27.00;33.00
57410;DHT22;46044;44.738;20.394;2022-07-12T10:09:44;27.00;32.00
57410;DHT22;46044;44.738;20.394;2022-07-12T10:12:11;27.00;32.00
57410;DHT22;46044;44.738;20.394;2022-07-12T10:14:39;27.00;32.00
57410;DHT22;46044;44.738;20.394;2022-07-12T10:17:08;28.00;33.00
57410;DHT22;46044;44.738;20.394;2022-07-12T10:19:37;28.00;32.00
57410;DHT22;46044;44.738;20.394;2022-07-12T10:22:18;28.00;31.00
57410;DHT22;46044;44.738;20.394;2022-07-12T10:24:49;28.00;32.00
57410;DHT22;46044;44.738;20.394;2022-07-12T10:29:52;27.00;30.00
57410;DHT22;46044;44.738;20.394;2022-07-12T10:32:33;27.00;30.00
57410;DHT22;46044;44.738;20.394;2022-07-12T10:35:04;26.00;32.00
57410;DHT22;46044;44.738;20.394;2022-07-12T10:37:34;26.00;35.00
57410;DHT22;46044;44.738;20.394;2022-07-12T10:40:19;27.00;33.00
57410;DHT22;46044;44.738;20.394;2022-07-12T10:45:30;27.00;32.00
57410;DHT22;46044;44.738;20.394;2022-07-12T10:47:57;27.00;30.00
57410;DHT22;46044;44.738;20.394;2022-07-12T10:50:52;26.00;32.00
57410;DHT22;46044;44.738;20.394;2022-07-12T10:56:10;27.00;30.00
57410;DHT22;46044;44.738;20.394;2022-07-12T10:58:59;27.00;30.00
57410;DHT22;46044;44.738;20.394;2022-07-12T11:01:33;27.00;31.00
57410;DHT22;46044;44.738;20.394;2022-07-12T11:04:05;26.00;32.00
57410;DHT22;46044;44.738;20.394;2022-07-12T11:06:34;27.00;31.00
57410;DHT22;46044;44.738;20.394;2022-07-12T11:09:04;27.00;31.00
57410;DHT22;46044;44.738;20.394;2022-07-12T11:11:34;27.00;30.00
57410;DHT22;46044;44.738;20.394;2022-07-12T11:14:01;28.00;30.00
57410;DHT22;46044;44.738;20.394;2022-07-12T11:16:29;28.00;30.00
57410;DHT22;46044;44.738;20.394;2022-07-12T11:18:55;28.00;32.00
57410;DHT22;46044;44.738;20.394;2022-07-12T11:21:21;27.00;29.00
57410;DHT22;46044;44.738;20.394;2022-07-12T11:23:47;27.00;30.00
57410;DHT22;46044;44.738;20.394;2022-07-12T11:26:13;28.00;31.00
57410;DHT22;46044;44.738;20.394;2022-07-12T11:28:41;28.00;31.00
57410;DHT22;46044;44.738;20.394;2022-07-12T11:31:13;28.00;30.00
57410;DHT22;46044;44.738;20.394;2022-07-12T11:33:42;28.00;31.00
57410;DHT22;46044;44.738;20.394;2022-07-12T11:36:10;28.00;30.00
57410;DHT22;46044;44.738;20.394;2022-07-12T11:38:41;28.00;31.00
57410;DHT22;46044;44.738;20.394;2022-07-12T11:41:08;28.00;30.00
57410;DHT22;46044;44.738;20.394;2022-07-12T11:43:35;28.00;31.00
57410;DHT22;46044;44.738;20.394;2022-07-12T11:46:03;28.00;30.00
57410;DHT22;46044;44.738;20.394;2022-07-12T11:48:29;27.00;30.00
57410;DHT22;46044;44.738;20.394;2022-07-12T11:51:04;27.00;29.00
57410;DHT22;46044;44.738;20.394;2022-07-12T11:53:31;27.00;30.00
57410;DHT22;46044;44.738;20.394;2022-07-12T11:55:59;27.00;31.00
57410;DHT22;46044;44.738;20.394;2022-07-12T11:58:26;27.00;31.00
57410;DHT22;46044;44.738;20.394;2022-07-12T12:00:53;28.00;30.00
57410;DHT22;46044;44.738;20.394;2022-07-12T12:03:20;28.00;31.00
57410;DHT22;46044;44.738;20.394;2022-07-12T12:05:54;28.00;30.00
57410;DHT22;46044;44.738;20.394;2022-07-12T12:08:20;28.00;30.00
57410;DHT22;46044;44.738;20.394;2022-07-12T12:10:57;27.00;29.00
57410;DHT22;46044;44.738;20.394;2022-07-12T12:13:25;28.00;31.00
57410;DHT22;46044;44.738;20.394;2022-07-12T12:16:02;28.00;32.00
57410;DHT22;46044;44.738;20.394;2022-07-12T12:21:07;28.00;35.00
57410;DHT22;46044;44.738;20.394;2022-07-12T12:23:33;27.00;32.00
57410;DHT22;46044;44.738;20.394;2022-07-12T12:28:45;27.00;34.00
57410;DHT22;46044;44.738;20.394;2022-07-12T12:31:12;27.00;33.00
57410;DHT22;46044;44.738;20.394;2022-07-12T12:33:49;27.00;33.00
57410;DHT22;46044;44.738;20.394;2022-07-12T12:36:27;27.00;32.00
57410;DHT22;46044;44.738;20.394;2022-07-12T12:39:00;26.00;32.00
57410;DHT22;46044;44.738;20.394;2022-07-12T12:41:28;26.00;33.00
57410;DHT22;46044;44.738;20.394;2022-07-12T12:49:50;26.00;32.00
57410;DHT22;46044;44.738;20.394;2022-07-12T12:52:17;26.00;33.00
57410;DHT22;46044;44.738;20.394;2022-07-12T12:54:43;26.00;33.00
57410;DHT22;46044;44.738;20.394;2022-07-12T12:57:10;26.00;33.00
57410;DHT22;46044;44.738;20.394;2022-07-12T12:59:37;26.00;34.00
57410;DHT22;46044;44.738;20.394;2022-07-12T13:02:04;26.00;35.00
57410;DHT22;46044;44.738;20.394;2022-07-12T13:04:34;26.00;36.00
57410;DHT22;46044;44.738;20.394;2022-07-12T13:07:00;26.00;36.00
57410;DHT22;46044;44.738;20.394;2022-07-12T13:09:27;27.00;37.00
57410;DHT22;46044;44.738;20.394;2022-07-12T13:11:54;27.00;37.00
57410;DHT22;46044;44.738;20.394;2022-07-12T13:14:20;27.00;36.00
57410;DHT22;46044;44.738;20.394;2022-07-12T13:16:45;27.00;36.00
57410;DHT22;46044;44.738;20.394;2022-07-12T13:19:11;26.00;40.00
57410;DHT22;46044;44.738;20.394;2022-07-12T13:21:37;27.00;44.00
57410;DHT22;46044;44.738;20.394;2022-07-12T13:24:03;27.00;40.00
57410;DHT22;46044;44.738;20.394;2022-07-12T13:26:30;27.00;38.00
57410;DHT22;46044;44.738;20.394;2022-07-12T13:31:31;27.00;36.00
57410;DHT22;46044;44.738;20.394;2022-07-12T13:33:56;27.00;39.00
57410;DHT22;46044;44.738;20.394;2022-07-12T13:36:22;27.00;36.00
57410;DHT22;46044;44.738;20.394;2022-07-12T13:38:49;27.00;36.00
57410;DHT22;46044;44.738;20.394;2022-07-12T13:41:15;27.00;35.00
57410;DHT22;46044;44.738;20.394;2022-07-12T13:43:40;27.00;35.00
57410;DHT22;46044;44.738;20.394;2022-07-12T13:46:06;27.00;34.00
57410;DHT22;46044;44.738;20.394;2022-07-12T13:48:32;27.00;37.00
57410;DHT22;46044;44.738;20.394;2022-07-12T13:50:59;27.00;35.00
57410;DHT22;46044;44.738;20.394;2022-07-12T13:53:25;27.00;35.00
57410;DHT22;46044;44.738;20.394;2022-07-12T13:55:51;26.00;37.00
57410;DHT22;46044;44.738;20.394;2022-07-12T13:58:18;26.00;34.00
57410;DHT22;46044;44.738;20.394;2022-07-12T14:00:44;26.00;36.00
57410;DHT22;46044;44.738;20.394;2022-07-12T14:03:09;26.00;37.00
57410;DHT22;46044;44.738;20.394;2022-07-12T14:05:35;26.00;34.00
57410;DHT22;46044;44.738;20.394;2022-07-12T14:08:03;26.00;35.00
57410;DHT22;46044;44.738;20.394;2022-07-12T14:10:28;26.00;36.00
57410;DHT22;46044;44.738;20.394;2022-07-12T14:12:54;27.00;35.00
57410;DHT22;46044;44.738;20.394;2022-07-12T14:15:20;27.00;35.00
57410;DHT22;46044;44.738;20.394;2022-07-12T14:18:06;27.00;35.00
57410;DHT22;46044;44.738;20.394;2022-07-12T14:20:32;27.00;33.00
57410;DHT22;46044;44.738;20.394;2022-07-12T14:22:59;27.00;33.00
57410;DHT22;46044;44.738;20.394;2022-07-12T14:25:25;27.00;32.00
57410;DHT22;46044;44.738;20.394;2022-07-12T14:27:50;27.00;32.00
57410;DHT22;46044;44.738;20.394;2022-07-12T14:30:16;27.00;32.00
57410;DHT22;46044;44.738;20.394;2022-07-12T14:32:42;26.00;32.00
57410;DHT22;46044;44.738;20.394;2022-07-12T14:35:09;27.00;33.00
57410;DHT22;46044;44.738;20.394;2022-07-12T14:37:35;27.00;32.00
57410;DHT22;46044;44.738;20.394;2022-07-12T14:40:03;26.00;33.00
57410;DHT22;46044;44.738;20.394;2022-07-12T14:42:29;26.00;32.00
57410;DHT22;46044;44.738;20.394;2022-07-12T14:44:54;26.00;31.00
57410;DHT22;46044;44.738;20.394;2022-07-12T14:47:23;26.00;33.00
57410;DHT22;46044;44.738;20.394;2022-07-12T14:49:49;26.00;33.00
57410;DHT22;46044;44.738;20.394;2022-07-12T14:52:15;26.00;32.00
57410;DHT22;46044;44.738;20.394;2022-07-12T14:54:42;26.00;32.00
57410;DHT22;46044;44.738;20.394;2022-07-12T14:57:08;26.00;33.00
57410;DHT22;46044;44.738;20.394;2022-07-12T14:59:33;26.00;32.00
57410;DHT22;46044;44.738;20.394;2022-07-12T15:01:59;26.00;33.00
57410;DHT22;46044;44.738;20.394;2022-07-12T15:04:25;26.00;33.00
57410;DHT22;46044;44.738;20.394;2022-07-12T15:06:51;26.00;34.00
57410;DHT22;46044;44.738;20.394;2022-07-12T15:09:17;26.00;34.00
57410;DHT22;46044;44.738;20.394;2022-07-12T15:11:42;26.00;34.00
57410;DHT22;46044;44.738;20.394;2022-07-12T15:14:08;26.00;35.00
57410;DHT22;46044;44.738;20.394;2022-07-12T15:16:34;26.00;35.00
57410;DHT22;46044;44.738;20.394;2022-07-12T15:18:59;26.00;35.00
57410;DHT22;46044;44.738;20.394;2022-07-12T15:21:25;26.00;35.00
57410;DHT22;46044;44.738;20.394;2022-07-12T15:23:51;26.00;35.00
57410;DHT22;46044;44.738;20.394;2022-07-12T15:26:17;26.00;35.00
57410;DHT22;46044;44.738;20.394;2022-07-12T15:28:51;26.00;35.00
57410;DHT22;46044;44.738;20.394;2022-07-12T15:31:17;26.00;35.00
57410;DHT22;46044;44.738;20.394;2022-07-12T15:33:43;26.00;35.00
57410;DHT22;46044;44.738;20.394;2022-07-12T15:36:10;26.00;35.00
57410;DHT22;46044;44.738;20.394;2022-07-12T15:38:35;26.00;36.00